Big Bear Station Historical Data
Daily Summary for April 10, 2017 Units:  English    Metric   Both
« Previous Day
Next Day »
Daily Weekly Monthly Yearly Custom
  High: Low: Average:
Temperature: 63.1 °F 24.3 °F 41.4 °F
Dew Point: 28.9 °F 2.3 °F 21.1 °F
Humidity: 78 % 12 % 50 %
Wind Speed: 6.3 mph 0.0 mph 2.2 mph
Wind Gust: -999.0 mph - -
Wind:- - SW
Pressure: 30.16 in 30.12 in -
Precipitation: 0.00 in    
Historical Graphs
 
 
Tabular Data for April 10, 2017
Time Temperature Dew Point Pressure Wind Wind Speed Wind Gust Humidity Rainfall Rate (Hourly)
00:14 28.6 °F 18.0 °F 30.15 in South 1.7 mph -999.0 mph 64 % 0 in
00:29 28.4 °F 17.4 °F 30.16 in South 2.2 mph -999.0 mph 63 % 0 in
00:44 27.9 °F 16.9 °F 30.15 in South 1.1 mph -999.0 mph 63 % 0 in
01:00 27.5 °F 15.4 °F 30.15 in SSE 1.1 mph -999.0 mph 60 % 0 in
01:15 27.3 °F 15.2 °F 30.15 in Calm   -999.0 mph 60 % 0 in
01:30 26.6 °F 13.8 °F 30.15 in Calm   -999.0 mph 58 % 0 in
01:45 26.6 °F 13.4 °F 30.15 in South 1.7 mph -999.0 mph 57 % 0 in
02:00 26.1 °F 17.3 °F 30.14 in South 1.7 mph -999.0 mph 69 % 0 in
02:16 26.1 °F 19.6 °F 30.14 in SSE 1.7 mph -999.0 mph 76 % 0 in
02:31 26.4 °F 20.5 °F 30.13 in South 1.7 mph -999.0 mph 78 % 0 in
02:46 25.9 °F 20.0 °F 30.13 in SSE 1.7 mph -999.0 mph 78 % 0 in
03:01 25.7 °F 16.9 °F 30.13 in South 1.1 mph -999.0 mph 69 % 0 in
03:16 25.5 °F 15.4 °F 30.13 in SSE 1.7 mph -999.0 mph 65 % 0 in
03:32 25.3 °F 15.5 °F 30.13 in South 1.7 mph -999.0 mph 66 % 0 in
03:47 25.2 °F 14.7 °F 30.12 in South 1.1 mph -999.0 mph 64 % 0 in
04:02 25.5 °F 15.0 °F 30.12 in South 1.7 mph -999.0 mph 64 % 0 in
04:17 25.0 °F 14.9 °F 30.12 in SSE 1.7 mph -999.0 mph 65 % 0 in
04:33 25.5 °F 14.3 °F 30.12 in South 1.7 mph -999.0 mph 62 % 0 in
04:48 25.2 °F 15.1 °F 30.12 in SSE 1.7 mph -999.0 mph 65 % 0 in
05:03 24.8 °F 14.7 °F 30.13 in Calm   -999.0 mph 65 % 0 in
05:18 24.8 °F 13.3 °F 30.13 in Calm   -999.0 mph 61 % 0 in
05:33 25.0 °F 14.5 °F 30.13 in Calm   -999.0 mph 64 % 0 in
05:49 24.8 °F 16.7 °F 30.14 in Calm   -999.0 mph 71 % 0 in
06:04 24.4 °F 17.3 °F 30.14 in Calm   -999.0 mph 74 % 0 in
06:19 24.4 °F 17.3 °F 30.15 in SSE 1.7 mph -999.0 mph 74 % 0 in
06:34 24.3 °F 15.9 °F 30.15 in Calm   -999.0 mph 70 % 0 in
06:49 24.8 °F 16.4 °F 30.15 in South 1.7 mph -999.0 mph 70 % 0 in
07:05 24.6 °F 16.9 °F 30.15 in SSE 1.1 mph -999.0 mph 72 % 0 in
07:20 25.3 °F 18.2 °F 30.16 in South 1.1 mph -999.0 mph 74 % 0 in
07:35 25.0 °F 19.1 °F 30.16 in Calm   -999.0 mph 78 % 0 in
07:51 25.9 °F 20.0 °F 30.16 in Calm   -999.0 mph 78 % 0 in
08:06 26.6 °F 20.4 °F 30.16 in Calm   -999.0 mph 77 % 0 in
08:21 28.0 °F 20.1 °F 30.16 in Calm   -999.0 mph 72 % 0 in
08:36 29.5 °F 22.2 °F 30.16 in Calm   -999.0 mph 74 % 0 in
08:52 33.1 °F 21.5 °F 30.16 in WNW 1.7 mph -999.0 mph 62 % 0 in
09:07 36.1 °F 26.2 °F 30.16 in NW 1.7 mph -999.0 mph 67 % 0 in
09:22 38.3 °F 27.2 °F 30.16 in Calm   -999.0 mph 64 % 0 in
09:37 40.5 °F 26.9 °F 30.16 in NW 1.7 mph -999.0 mph 58 % 0 in
09:53 42.8 °F 23.4 °F 30.16 in NW 3.2 mph -999.0 mph 46 % 0 in
10:08 45.0 °F 24.9 °F 30.16 in WNW 3.2 mph -999.0 mph 45 % 0 in
10:23 48.9 °F 23.8 °F 30.16 in NNW 2.7 mph -999.0 mph 37 % 0 in
10:38 51.8 °F 7.0 °F 30.16 in WNW 3.2 mph -999.0 mph 16 % 0 in
10:54 53.8 °F 2.3 °F 30.16 in NNW 3.7 mph -999.0 mph 12 % 0 in
11:09 55.8 °F 12.9 °F 30.16 in NW 4.2 mph -999.0 mph 18 % 0 in
11:24 55.4 °F 12.6 °F 30.16 in WNW 3.2 mph -999.0 mph 18 % 0 in
11:39 56.8 °F 20.4 °F 30.16 in WNW 5.8 mph -999.0 mph 24 % 0 in
11:54 57.6 °F 20.0 °F 30.16 in NNW 4.7 mph -999.0 mph 23 % 0 in
12:10 57.7 °F 20.1 °F 30.16 in West 3.2 mph -999.0 mph 23 % 0 in
12:25 58.3 °F 20.6 °F 30.16 in NNW 3.7 mph -999.0 mph 23 % 0 in
12:40 58.6 °F 21.9 °F 30.16 in NNW 5.8 mph -999.0 mph 24 % 0 in
12:56 59.0 °F 24.1 °F 30.16 in NW 4.2 mph -999.0 mph 26 % 0 in
13:11 59.0 °F 23.2 °F 30.16 in NW 3.2 mph -999.0 mph 25 % 0 in
13:26 60.1 °F 23.2 °F 30.16 in NNW 3.7 mph -999.0 mph 24 % 0 in
13:41 61.5 °F 27.2 °F 30.16 in WNW 4.7 mph -999.0 mph 27 % 0 in
13:57 60.4 °F 23.4 °F 30.15 in WNW 5.3 mph -999.0 mph 24 % 0 in
14:12 61.2 °F 27.8 °F 30.15 in NNW 5.3 mph -999.0 mph 28 % 0 in
14:27 61.2 °F 27.8 °F 30.15 in NNW 4.2 mph -999.0 mph 28 % 0 in
14:42 61.2 °F 26.0 °F 30.15 in NW 6.3 mph -999.0 mph 26 % 0 in
14:57 59.4 °F 23.5 °F 30.15 in SW 2.2 mph -999.0 mph 25 % 0 in
15:13 58.8 °F 23.0 °F 30.14 in NNW 3.7 mph -999.0 mph 25 % 0 in
15:28 60.6 °F 25.5 °F 30.14 in NW 4.7 mph -999.0 mph 26 % 0 in
15:43 58.5 °F 23.7 °F 30.14 in East 3.2 mph -999.0 mph 26 % 0 in
15:58 59.0 °F 25.0 °F 30.14 in NNW 4.7 mph -999.0 mph 27 % 0 in
16:13 58.6 °F 23.8 °F 30.14 in SSE 4.7 mph -999.0 mph 26 % 0 in
16:29 59.5 °F 23.6 °F 30.13 in NNE 4.2 mph -999.0 mph 25 % 0 in
16:44 60.8 °F 24.7 °F 30.13 in NW 4.2 mph -999.0 mph 25 % 0 in
16:59 62.4 °F 26.1 °F 30.13 in WNW 2.7 mph -999.0 mph 25 % 0 in
17:14 63.1 °F 25.7 °F 30.13 in NW 3.2 mph -999.0 mph 24 % 0 in
17:30 61.2 °F 26.0 °F 30.13 in WNW 3.2 mph -999.0 mph 26 % 0 in
17:45 61.5 °F 28.9 °F 30.13 in NW 4.7 mph -999.0 mph 29 % 0 in
18:01 59.2 °F 28.6 °F 30.13 in South 3.2 mph -999.0 mph 31 % 0 in
18:16 56.8 °F 28.0 °F 30.13 in WSW 2.7 mph -999.0 mph 33 % 0 in
18:31 54.3 °F 27.2 °F 30.14 in NW 4.7 mph -999.0 mph 35 % 0 in
18:47 52.2 °F 26.7 °F 30.14 in Calm   -999.0 mph 37 % 0 in
19:02 48.9 °F 25.0 °F 30.14 in SSE 2.2 mph -999.0 mph 39 % 0 in
19:17 47.7 °F 24.5 °F 30.14 in Calm   -999.0 mph 40 % 0 in
19:33 46.2 °F 23.8 °F 30.14 in Calm   -999.0 mph 41 % 0 in
19:48 44.2 °F 25.2 °F 30.14 in South 1.7 mph -999.0 mph 47 % 0 in
20:03 43.0 °F 25.1 °F 30.14 in South 2.2 mph -999.0 mph 49 % 0 in
20:19 41.7 °F 25.4 °F 30.14 in South 1.7 mph -999.0 mph 52 % 0 in
20:34 40.8 °F 24.5 °F 30.15 in Calm   -999.0 mph 52 % 0 in
20:49 39.7 °F 24.8 °F 30.16 in South 1.7 mph -999.0 mph 55 % 0 in
21:04 39.0 °F 24.2 °F 30.16 in South 1.7 mph -999.0 mph 55 % 0 in
21:19 38.5 °F 24.2 °F 30.16 in SSE 1.1 mph -999.0 mph 56 % 0 in
21:35 37.9 °F 24.0 °F 30.16 in South 2.2 mph -999.0 mph 57 % 0 in
21:50 37.2 °F 23.8 °F 30.16 in Calm   -999.0 mph 58 % 0 in
22:05 36.5 °F 24.3 °F 30.16 in Calm   -999.0 mph 61 % 0 in
22:20 36.0 °F 24.2 °F 30.16 in South 2.2 mph -999.0 mph 62 % 0 in
22:35 35.6 °F 24.2 °F 30.16 in South 1.7 mph -999.0 mph 63 % 0 in
22:51 35.1 °F 24.1 °F 30.16 in Calm   -999.0 mph 64 % 0 in
23:06 34.7 °F 24.1 °F 30.16 in South 1.7 mph -999.0 mph 65 % 0 in
23:21 34.5 °F 24.3 °F 30.16 in South 1.7 mph -999.0 mph 66 % 0 in
23:37 34.2 °F 24.7 °F 30.16 in South 1.7 mph -999.0 mph 68 % 0 in
23:52 34.0 °F 24.2 °F 30.16 in South 1.7 mph -999.0 mph 67 % 0 in
Big Bear CA Weather
Compliments of Weather Underground - 1.5 mb